createdAt,value
2022-09-12T00:01:13.619Z,27.22
2022-09-12T00:04:52.220Z,27.22
2022-09-12T00:08:30.129Z,27.21
2022-09-12T00:12:08.417Z,27.20
2022-09-12T00:15:45.466Z,27.19
2022-09-12T00:19:22.873Z,27.17
2022-09-12T00:23:01.230Z,27.15
2022-09-12T00:26:39.245Z,27.13
2022-09-12T00:30:16.701Z,27.10
2022-09-12T00:33:57.467Z,27.05
2022-09-12T00:37:35.493Z,27.00
2022-09-12T00:41:31.863Z,26.95
2022-09-12T00:45:23.328Z,26.89
2022-09-12T00:48:56.077Z,26.82
2022-09-12T00:52:57.057Z,26.77
2022-09-12T00:56:36.919Z,26.73
2022-09-12T01:00:17.639Z,26.65
2022-09-12T01:03:54.590Z,26.59
2022-09-12T01:07:39.863Z,26.54
2022-09-12T01:11:21.094Z,26.47
2022-09-12T01:14:58.709Z,26.38
2022-09-12T01:18:50.683Z,26.31
2022-09-12T01:22:28.338Z,26.23
2022-09-12T01:26:11.274Z,26.17
2022-09-12T01:30:16.536Z,26.10
2022-09-12T01:34:16.813Z,26.01
2022-09-12T01:38:04.791Z,25.92
2022-09-12T01:42:02.410Z,25.86
2022-09-12T01:46:00.713Z,25.77
2022-09-12T01:50:01.895Z,25.69
2022-09-12T01:53:48.332Z,25.61
2022-09-12T01:57:32.514Z,25.54
2022-09-12T02:01:27.743Z,25.47
2022-09-12T02:05:11.429Z,25.42
2022-09-12T02:08:57.812Z,25.36
2022-09-12T02:12:50.183Z,25.32
2022-09-12T02:16:37.283Z,25.27
2022-09-12T02:20:43.988Z,25.23
2022-09-12T02:24:21.815Z,25.20
2022-09-12T02:28:07.106Z,25.21
2022-09-12T02:31:52.266Z,25.19
2022-09-12T02:35:33.207Z,25.19
2022-09-12T02:39:10.186Z,25.18
2022-09-12T02:42:47.631Z,25.17
2022-09-12T02:46:41.137Z,25.16
2022-09-12T02:50:18.566Z,25.15
2022-09-12T02:53:56.366Z,25.14
2022-09-12T02:57:33.925Z,25.12
2022-09-12T03:01:26.827Z,25.11
2022-09-12T03:05:14.081Z,25.08
2022-09-12T03:08:55.930Z,25.05
2022-09-12T03:12:54.723Z,25.02
2022-09-12T03:17:05.233Z,25.00
2022-09-12T03:20:57.842Z,24.98
2022-09-12T03:24:43.379Z,24.96
2022-09-12T03:28:23.128Z,24.94
2022-09-12T03:32:01.056Z,24.94
2022-09-12T03:35:39.658Z,24.93
2022-09-12T03:39:17.614Z,24.90
2022-09-12T03:42:55.624Z,24.88
2022-09-12T03:46:33.744Z,24.86
2022-09-12T03:50:11.237Z,24.84
2022-09-12T03:53:49.268Z,24.82
2022-09-12T03:57:28.072Z,24.80
2022-09-12T04:01:14.476Z,24.78
2022-09-12T04:04:52.379Z,24.77
2022-09-12T04:08:29.970Z,24.76
2022-09-12T04:12:07.367Z,24.77
2022-09-12T04:15:56.963Z,24.77
2022-09-12T04:19:35.069Z,24.77
2022-09-12T04:23:11.999Z,24.78
2022-09-12T04:26:49.364Z,24.75
2022-09-12T04:30:28.276Z,24.74
2022-09-12T04:34:06.914Z,24.72
2022-09-12T04:37:44.038Z,24.70
2022-09-12T04:41:27.962Z,24.67
2022-09-12T04:45:06.885Z,24.65
2022-09-12T04:48:44.981Z,24.63
2022-09-12T04:52:22.997Z,24.63
2022-09-12T04:56:05.249Z,24.63
2022-09-12T04:59:43.028Z,24.60
2022-09-12T05:03:20.096Z,24.59
2022-09-12T05:06:57.053Z,24.58
2022-09-12T05:10:35.881Z,24.56
2022-09-12T05:14:13.273Z,24.54
2022-09-12T05:17:50.211Z,24.53
2022-09-12T05:21:46.905Z,24.53
2022-09-12T05:25:05.145Z,24.51
2022-09-12T05:28:43.551Z,24.50
2022-09-12T05:32:21.797Z,24.49
2022-09-12T05:35:59.346Z,24.48
2022-09-12T05:39:37.250Z,24.48
2022-09-12T05:43:14.990Z,24.48
2022-09-12T05:46:53.017Z,24.48
2022-09-12T05:50:30.974Z,24.50
2022-09-12T05:54:11.374Z,24.52
2022-09-12T05:57:48.565Z,24.54
2022-09-12T06:01:28.033Z,24.57
2022-09-12T06:05:08.607Z,24.60
2022-09-12T06:08:49.203Z,24.64
2022-09-12T06:12:29.708Z,24.69
2022-09-12T06:16:09.944Z,24.74
2022-09-12T06:19:47.444Z,24.79
2022-09-12T06:23:25.267Z,24.84
2022-09-12T06:27:02.976Z,24.90
2022-09-12T06:30:40.596Z,24.95
2022-09-12T06:34:18.400Z,25.00
2022-09-12T06:37:56.200Z,25.08
2022-09-12T06:41:34.838Z,25.14
2022-09-12T06:45:15.293Z,25.20
2022-09-12T06:48:55.793Z,25.28
2022-09-12T06:52:32.955Z,25.38
2022-09-12T06:56:17.268Z,25.48
2022-09-12T06:59:57.609Z,25.59
2022-09-12T07:03:36.994Z,25.72
2022-09-12T07:07:14.255Z,25.84
2022-09-12T07:10:51.562Z,25.96
2022-09-12T07:14:29.082Z,26.08
2022-09-12T07:18:07.561Z,26.19
2022-09-12T07:21:45.982Z,26.28
2022-09-12T07:25:23.479Z,26.37
2022-09-12T07:29:25.155Z,26.45
2022-09-12T07:32:59.001Z,26.53
2022-09-12T07:36:37.723Z,26.63
2022-09-12T07:40:15.682Z,26.74
2022-09-12T07:43:55.208Z,26.85
2022-09-12T07:47:33.504Z,26.98
2022-09-12T07:51:12.501Z,27.11
2022-09-12T07:54:50.266Z,27.24
2022-09-12T07:58:30.387Z,27.39
2022-09-12T08:02:16.813Z,27.53
2022-09-12T08:05:55.044Z,27.69
2022-09-12T08:09:33.002Z,27.86
2022-09-12T08:13:12.183Z,28.03
2022-09-12T08:16:49.335Z,28.18
2022-09-12T08:20:28.518Z,28.31
2022-09-12T08:24:07.752Z,28.41
2022-09-12T08:27:46.351Z,28.53
2022-09-12T08:31:26.534Z,28.63
2022-09-12T08:35:06.141Z,28.74
2022-09-12T08:38:45.990Z,28.84
2022-09-12T08:42:52.887Z,28.96
2022-09-12T08:46:42.424Z,29.06
2022-09-12T08:50:23.145Z,29.17
2022-09-12T08:54:04.696Z,29.29
2022-09-12T08:57:43.381Z,29.41
2022-09-12T09:01:31.025Z,29.52
2022-09-12T09:05:30.333Z,29.71
2022-09-12T09:09:19.251Z,29.92
2022-09-12T09:13:06.184Z,30.16
2022-09-12T09:16:46.730Z,30.40
2022-09-12T09:20:43.904Z,30.61
2022-09-12T09:24:28.406Z,30.82
2022-09-12T09:28:13.879Z,31.02
2022-09-12T09:32:00.588Z,31.23
2022-09-12T09:35:52.406Z,31.44
2022-09-12T09:39:36.831Z,31.65
2022-09-12T09:43:22.206Z,31.84
2022-09-12T09:47:01.702Z,32.03
2022-09-12T09:50:39.933Z,32.21
2022-09-12T09:54:23.482Z,32.35
2022-09-12T09:58:01.397Z,32.48
2022-09-12T10:01:48.022Z,32.61
2022-09-12T10:05:26.099Z,32.72
2022-09-12T10:09:15.564Z,32.81
2022-09-12T10:13:08.483Z,32.87
2022-09-12T10:16:52.473Z,33.00
2022-09-12T10:20:41.652Z,33.14
2022-09-12T10:24:28.078Z,33.33
2022-09-12T10:28:20.717Z,33.42
2022-09-12T10:32:02.204Z,33.49
2022-09-12T10:35:47.972Z,33.56
2022-09-12T10:39:26.447Z,33.55
2022-09-12T10:43:18.270Z,33.61
2022-09-12T10:46:59.107Z,33.70
2022-09-12T10:50:43.998Z,33.79
2022-09-12T10:54:26.308Z,33.86
2022-09-12T10:58:04.484Z,33.86
2022-09-12T11:01:47.021Z,33.83
2022-09-12T11:05:53.134Z,33.83
2022-09-12T11:09:40.174Z,33.94
2022-09-12T11:13:36.822Z,34.04
2022-09-12T11:17:36.344Z,33.98
2022-09-12T11:21:16.997Z,33.89
2022-09-12T11:25:13.369Z,33.77
2022-09-12T11:28:57.904Z,33.84
2022-09-12T11:33:09.638Z,34.01
2022-09-12T11:37:02.624Z,34.10
2022-09-12T11:40:43.532Z,34.06
2022-09-12T11:44:40.287Z,34.00
2022-09-12T11:48:30.027Z,33.94
2022-09-12T11:52:20.445Z,34.00
2022-09-12T11:56:08.342Z,34.19
2022-09-12T12:00:01.214Z,34.46
2022-09-12T12:03:44.203Z,34.73
2022-09-12T12:07:23.017Z,34.86
2022-09-12T12:11:03.758Z,34.84
2022-09-12T12:14:46.644Z,34.87
2022-09-12T12:18:32.412Z,34.98
2022-09-12T12:22:24.809Z,35.21
2022-09-12T12:26:04.013Z,35.44
2022-09-12T12:29:46.097Z,35.63
2022-09-12T12:33:27.010Z,35.74
2022-09-12T12:37:20.116Z,35.76
2022-09-12T12:41:43.136Z,35.63
2022-09-12T12:45:27.145Z,35.66
2022-09-12T12:49:28.454Z,35.73
2022-09-12T12:53:28.021Z,35.84
2022-09-12T12:57:20.496Z,35.89
2022-09-12T13:01:13.513Z,35.93
2022-09-12T13:04:52.801Z,35.97
2022-09-12T13:08:33.235Z,35.94
2022-09-12T13:12:18.977Z,35.95
2022-09-12T13:15:57.796Z,36.00
2022-09-12T13:19:38.112Z,36.10
2022-09-12T13:23:32.091Z,36.26
2022-09-12T13:27:25.542Z,36.47
2022-09-12T13:31:26.680Z,36.65
2022-09-12T13:35:25.887Z,36.71
2022-09-12T13:39:15.781Z,36.88
2022-09-12T13:43:09.418Z,36.84
2022-09-12T13:46:49.903Z,36.82
2022-09-12T13:50:37.514Z,36.81
2022-09-12T13:54:23.838Z,36.81
2022-09-12T13:58:07.657Z,36.65
2022-09-12T14:01:47.506Z,36.73
2022-09-12T14:05:26.985Z,37.46
2022-09-12T14:09:14.042Z,39.09
2022-09-12T14:12:51.595Z,41.30
2022-09-12T14:16:32.653Z,43.21
2022-09-12T14:20:16.607Z,44.87
2022-09-12T14:23:54.882Z,46.19
2022-09-12T14:27:40.913Z,47.30
2022-09-12T14:31:38.662Z,48.11
2022-09-12T14:35:20.446Z,48.54
2022-09-12T14:39:04.632Z,48.09
2022-09-12T14:42:42.726Z,46.81
2022-09-12T14:46:27.111Z,45.63
2022-09-12T14:50:16.318Z,44.39
2022-09-12T14:53:54.745Z,43.30
2022-09-12T14:57:40.722Z,42.31
2022-09-12T15:01:19.574Z,41.36
2022-09-12T15:05:09.405Z,40.58
2022-09-12T15:08:48.493Z,39.88
2022-09-12T15:12:27.163Z,39.30
2022-09-12T15:16:04.932Z,38.69
2022-09-12T15:19:43.002Z,37.89
2022-09-12T15:23:41.571Z,37.29
2022-09-12T15:27:20.191Z,36.65
2022-09-12T15:31:05.468Z,36.03
2022-09-12T15:34:43.407Z,35.56
2022-09-12T15:38:26.160Z,35.11
2022-09-12T15:42:06.056Z,34.68
2022-09-12T15:45:45.017Z,34.30
2022-09-12T15:49:23.041Z,33.99
2022-09-12T15:53:00.911Z,33.75
2022-09-12T15:56:38.705Z,33.53
2022-09-12T16:00:18.767Z,33.31
2022-09-12T16:03:57.152Z,33.12
2022-09-12T16:07:35.410Z,32.94
2022-09-12T16:11:25.973Z,32.84
2022-09-12T16:15:08.311Z,32.77
2022-09-12T16:18:41.225Z,32.66
2022-09-12T16:22:19.541Z,32.55
2022-09-12T16:26:01.585Z,32.43
2022-09-12T16:29:39.255Z,32.32
2022-09-12T16:33:17.051Z,32.18
2022-09-12T16:36:54.134Z,32.07
2022-09-12T16:40:32.349Z,31.95
2022-09-12T16:44:10.910Z,31.87
2022-09-12T16:47:48.678Z,31.77
2022-09-12T16:51:33.157Z,31.68
2022-09-12T16:55:10.322Z,31.59
2022-09-12T16:58:47.867Z,31.51
2022-09-12T17:02:24.837Z,31.41
2022-09-12T17:06:08.528Z,31.28
2022-09-12T17:09:47.985Z,31.19
2022-09-12T17:13:36.698Z,31.11
2022-09-12T17:17:23.903Z,31.02
2022-09-12T17:21:02.258Z,30.92
2022-09-12T17:24:40.320Z,30.84
2022-09-12T17:28:18.951Z,30.76
2022-09-12T17:31:56.969Z,30.69
2022-09-12T17:35:35.479Z,30.60
2022-09-12T17:39:14.345Z,30.52
2022-09-12T17:42:52.365Z,30.44
2022-09-12T17:46:34.384Z,30.34
2022-09-12T17:50:30.811Z,30.23
2022-09-12T17:54:16.207Z,30.14
2022-09-12T17:57:53.316Z,30.07
2022-09-12T18:01:30.824Z,30.01
2022-09-12T18:05:09.457Z,29.97
2022-09-12T18:08:47.265Z,29.93
2022-09-12T18:12:25.611Z,29.90
2022-09-12T18:16:08.408Z,29.87
2022-09-12T18:19:49.275Z,29.84
2022-09-12T18:23:31.384Z,29.79
2022-09-12T18:27:09.051Z,29.71
2022-09-12T18:30:47.328Z,29.66
2022-09-12T18:34:25.454Z,29.64
2022-09-12T18:38:02.648Z,29.59
2022-09-12T18:41:41.023Z,29.56
2022-09-12T18:45:19.410Z,29.54
2022-09-12T18:48:59.151Z,29.52
2022-09-12T18:52:37.166Z,29.50
2022-09-12T18:56:14.681Z,29.48
2022-09-12T18:59:52.721Z,29.45
2022-09-12T19:03:30.583Z,29.41
2022-09-12T19:07:09.273Z,29.36
2022-09-12T19:10:56.239Z,29.33
2022-09-12T19:14:33.697Z,29.29
2022-09-12T19:18:10.984Z,29.26
2022-09-12T19:21:48.907Z,29.25
2022-09-12T19:25:26.984Z,29.23
2022-09-12T19:29:08.632Z,29.20
2022-09-12T19:32:46.074Z,29.17
2022-09-12T19:36:44.306Z,29.16
2022-09-12T19:40:22.027Z,29.15
2022-09-12T19:44:02.527Z,29.13
2022-09-12T19:47:42.913Z,29.10
2022-09-12T19:51:18.073Z,29.07
2022-09-12T19:54:55.732Z,29.02
2022-09-12T19:58:41.638Z,29.01
2022-09-12T20:02:19.489Z,29.01
2022-09-12T20:06:05.304Z,28.98
2022-09-12T20:09:42.604Z,28.87
2022-09-12T20:13:21.241Z,28.79
2022-09-12T20:16:59.096Z,28.71
2022-09-12T20:20:37.355Z,28.68
2022-09-12T20:24:14.979Z,28.59
2022-09-12T20:28:00.139Z,28.52
2022-09-12T20:31:30.592Z,28.41
2022-09-12T20:35:09.399Z,28.33
2022-09-12T20:38:51.856Z,28.33
2022-09-12T20:42:31.375Z,28.37
2022-09-12T20:46:11.294Z,28.40
2022-09-12T20:49:48.839Z,28.46
2022-09-12T20:53:30.556Z,28.53
2022-09-12T20:57:10.293Z,28.57
2022-09-12T21:00:48.117Z,28.61
2022-09-12T21:04:25.066Z,28.62
2022-09-12T21:08:02.776Z,28.62
2022-09-12T21:11:40.654Z,28.64
2022-09-12T21:15:17.767Z,28.66
2022-09-12T21:18:58.484Z,28.65
2022-09-12T21:22:36.197Z,28.66
2022-09-12T21:26:13.958Z,28.67
2022-09-12T21:29:52.949Z,28.67
2022-09-12T21:33:30.664Z,28.66
2022-09-12T21:37:08.649Z,28.65
2022-09-12T21:40:47.302Z,28.67
2022-09-12T21:44:26.216Z,28.70
2022-09-12T21:48:05.464Z,28.70
2022-09-12T21:51:42.916Z,28.71
2022-09-12T21:55:20.115Z,28.67
2022-09-12T21:58:57.155Z,28.68
2022-09-12T22:02:34.253Z,28.66
2022-09-12T22:06:11.910Z,28.46
2022-09-12T22:09:50.370Z,28.23
2022-09-12T22:13:27.886Z,28.03
2022-09-12T22:17:09.677Z,28.07
2022-09-12T22:20:46.848Z,28.10
2022-09-12T22:24:25.261Z,28.14
2022-09-12T22:28:02.915Z,28.15
2022-09-12T22:31:40.721Z,28.16
2022-09-12T22:35:19.656Z,28.13
2022-09-12T22:38:57.854Z,28.15
2022-09-12T22:42:36.066Z,28.18
2022-09-12T22:46:13.853Z,28.20
2022-09-12T22:49:51.950Z,28.22
2022-09-12T22:53:29.664Z,28.23
2022-09-12T22:57:07.624Z,28.21
2022-09-12T23:00:47.605Z,28.19
2022-09-12T23:04:25.513Z,28.16
2022-09-12T23:08:03.820Z,28.13
2022-09-12T23:11:42.662Z,28.12
2022-09-12T23:15:19.808Z,28.11
2022-09-12T23:18:58.645Z,28.11
2022-09-12T23:22:37.073Z,28.11
2022-09-12T23:26:20.486Z,28.12
2022-09-12T23:30:01.366Z,28.12
2022-09-12T23:33:36.405Z,28.13
2022-09-12T23:37:13.478Z,28.17
2022-09-12T23:40:51.052Z,28.20
2022-09-12T23:44:28.868Z,28.21
2022-09-12T23:48:06.162Z,28.15
2022-09-12T23:51:43.444Z,28.08
2022-09-12T23:55:21.637Z,28.02
2022-09-12T23:58:59.793Z,27.96
